Flight Track Log - Related Links

Times and Time Zones

All times are in EDT time to prevent confusion due to time zone crossing. See the JBU1234 flight status page for this flight to view local times or setup timezone preferences in your user account.

Time Position Orientation Groundspeed Altitude Reporting Facility
EDT Latitude Longitude Course Direction KTS MPH feet Rate Location/Type
Sun 09:35:52 PM 18.4390 -65.9690 49° Northeast 180 207 1,700  Level FlightAware ADS-B
Sun 09:36:02 PM 18.4470 -65.9640 31° Northeast 197 227 2,000 1,286 Climbing FlightAware ADS-B
Sun 09:36:20 PM 18.4640 -65.9640 360° North 231 266 2,300 1,174 Climbing FlightAware ADS-B
Sun 09:36:48 PM 18.4960 -65.9790 336° Northwest 279 321 2,900 2,143 Climbing FlightAware ADS-B
Sun 09:37:16 PM 18.5270 -66.0000 327° Northwest 290 334 4,300 3,214 Climbing FlightAware ADS-B
Sun 09:37:44 PM 18.5520 -66.0280 313° West 286 329 5,900 3,409 Climbing FlightAware ADS-B
Sun 09:38:00 PM 18.5660 -66.0450 311° West 284 327 6,800 2,864 Climbing FlightAware ADS-B
Sun 09:38:28 PM 18.5920 -66.0750 312° West 298 343 8,000 2,550 Climbing FlightAware ADS-B
Sun 09:38:40 PM 18.6030 -66.0890 310° West 305 351 8,500 2,634 Climbing FlightAware ADS-B
Sun 09:39:09 PM 18.6300 -66.1200 313° West 308 354 9,800 2,000 Climbing FlightAware ADS-B
Sun 09:39:49 PM 18.6700 -66.1680 311° West 344 396 10,800 1,412 Climbing FlightAware ADS-B
Sun 09:40:34 PM 18.7210 -66.2290 311° West 379 436 11,800 1,953 Climbing FlightAware ADS-B
Sun 09:41:15 PM 18.7680 -66.2870 311° West 382 440 13,600 2,357 Climbing FlightAware ADS-B
Sun 09:41:58 PM 18.8190 -66.3480 311° West 391 450 15,100 2,259 Climbing FlightAware ADS-B
Sun 09:42:40 PM 18.8700 -66.4090 311° West 388 447 16,800 2,127 Climbing FlightAware ADS-B
Sun 09:43:17 PM 18.9130 -66.4610 311° West 396 456 17,900 1,714 Climbing FlightAware ADS-B
Sun 09:44:04 PM 18.9720 -66.5300 312° West 405 466 19,200 1,636 Climbing FlightAware ADS-B
Sun 09:44:45 PM 19.0230 -66.5910 311° West 412 474 20,300 1,429 Climbing FlightAware ADS-B
Sun 09:45:28 PM 19.0760 -66.6600 309° West 424 488 21,200 1,446 Climbing FlightAware ADS-B
Sun 09:46:08 PM 19.1260 -66.7240 310° West 425 489 22,300 1,500 Climbing FlightAware ADS-B
Sun 09:46:52 PM 19.1830 -66.7950 310° West 430 495 23,300 1,341 Climbing FlightAware ADS-B
Sun 09:47:33 PM 19.2340 -66.8600 310° West 435 501 24,200 1,286 Climbing FlightAware ADS-B
Sun 09:48:16 PM 19.2910 -66.9320 310° West 438 504 25,100 1,200 Climbing FlightAware ADS-B
Sun 09:48:58 PM 19.3460 -67.0010 310° West 445 512 25,900 1,171 Climbing FlightAware ADS-B
Sun 09:49:38 PM 19.3990 -67.0690 310° West 448 516 26,700 1,215 Climbing FlightAware ADS-B
Sun 09:50:17 PM 19.4500 -67.1330 310° West 448 516 27,500 1,071 Climbing FlightAware ADS-B
Sun 09:51:02 PM 19.5110 -67.2110 310° West 452 520 28,200 876 Climbing FlightAware ADS-B
Sun 09:51:46 PM 19.5700 -67.2860 310° West 455 524 28,800 786 Climbing FlightAware ADS-B
Sun 09:52:26 PM 19.6240 -67.3550 310° West 462 532 29,300 1,214 Climbing FlightAware ADS-B
Sun 09:53:10 PM 19.6840 -67.4310 310° West 452 520 30,500 1,412 Climbing FlightAware ADS-B
Sun 09:53:51 PM 19.7370 -67.4990 310° West 446 513 31,300 1,071 Climbing FlightAware ADS-B
Sun 09:54:34 PM 19.7950 -67.5720 310° West 447 514 32,000 1,157 Climbing FlightAware ADS-B
Sun 09:55:14 PM 19.8480 -67.6410 309° West 441 507 32,900 1,390 Climbing FlightAware ADS-B
Sun 09:55:56 PM 19.9020 -67.7100 310° West 431 496 33,900 966 Climbing FlightAware ADS-B
Sun 09:56:41 PM 19.9590 -67.7830 310° West 437 503 34,300 714 Climbing FlightAware ADS-B
Sun 09:57:20 PM 20.0100 -67.8480 310° West 435 501 34,900 815 Climbing FlightAware ADS-B
Sun 09:58:02 PM 20.0640 -67.9180 309° West 435 501 35,400 714 Climbing FlightAware ADS-B
Sun 09:58:44 PM 20.1160 -67.9840 310° West 434 499 35,900 434 Climbing FlightAware ADS-B
Sun 09:59:25 PM 20.1700 -68.0540 309° West 432 497 36,000 45 Climbing FlightAware ADS-B
Sun 10:00:58 PM 20.2880 -68.2060 310° West 432 497 36,000  Level FlightAware ADS-B
Sun 10:01:38 PM 20.3390 -68.2720 309° West 432 497 36,000  Level FlightAware ADS-B
Sun 10:02:20 PM 20.3920 -68.3410 309° West 431 496 36,000  Level FlightAware ADS-B
Sun 10:03:01 PM 20.4370 -68.4120 304° West 429 494 36,000  Level FlightAware ADS-B
Sun 10:03:46 PM 20.4790 -68.4970 298° West 431 496 36,000  Level FlightAware ADS-B
Sun 10:04:43 PM 20.5380 -68.5860 305° West 431 496 36,000  Level FlightAware ADS-B
Sun 10:05:19 PM 20.5730 -68.6390 305° West 431 496 36,000  Level FlightAware ADS-B
Sun 10:06:08 PM 20.6200 -68.7120 305° West 431 496 36,000  Level FlightAware ADS-B
Sun 10:06:45 PM 20.6560 -68.7670 305° West 431 496 36,000  Level FlightAware ADS-B
Sun 10:07:21 PM 20.6910 -68.8200 305° West 431 496 36,000  Level FlightAware ADS-B
Sun 10:08:21 PM 20.7500 -68.9090 305° West 431 496 36,000  Level FlightAware ADS-B
Sun 10:09:21 PM 20.8080 -68.9990 305° West 431 496 36,000  Level FlightAware ADS-B
Sun 10:09:57 PM 20.8430 -69.0520 305° West 431 496 36,000  Level FlightAware ADS-B
Sun 10:10:45 PM 20.8900 -69.1230 305° West 431 496 36,000  Level FlightAware ADS-B
Sun 10:12:19 PM 20.9810 -69.2630 305° West 431 496 36,000  Level FlightAware ADS-B
Sun 10:13:07 PM 21.0280 -69.3340 305° West 431 496 36,000  Level FlightAware ADS-B
Sun 10:13:43 PM 21.0630 -69.3880 305° West 431 496 36,000  Level FlightAware ADS-B
Sun 10:14:36 PM 21.2156 -69.6028 305° West 433 498 36,000  Level Miami Center
Sun 10:15:34 PM 21.2853 -69.7103 305° West 438 504 36,000  Level Miami Center
Sun 10:16:34 PM 21.3528 -69.8178 304° West 433 498 36,000 -49 Level Miami Center
Sun 10:17:36 PM 21.4200 -69.9233 304° West 433 498 35,900 -49 Descending Miami Center
Sun 10:18:36 PM 21.4914 -70.0289 306° West 433 498 35,900 50 Level Miami Center
Sun 10:19:37 PM 21.5611 -70.1389 304° West 439 505 36,000 50 Climbing Miami Center
Sun 10:20:35 PM 21.6325 -70.2514 304° West 444 511 36,000  Level Miami Center
Sun 10:21:34 PM 21.7019 -70.3594 305° West 449 517 36,000  Level Miami Center
Sun 10:22:35 PM 21.7753 -70.4697 306° West 449 517 36,000  Level Miami Center
Sun 10:23:36 PM 21.8467 -70.5803 305° West 449 517 36,000 -50 Level Miami Center
Sun 10:24:34 PM 21.9181 -70.6931 304° West 449 517 35,900 -51 Descending Miami Center
Sun 10:25:34 PM 21.9892 -70.8014 305° West 449 517 35,900 50 Level Miami Center
Sun 10:26:35 PM 22.0581 -70.9125 304° West 449 517 36,000 49 Climbing Miami Center
Sun 10:27:36 PM 22.1314 -71.0233 306° West 449 517 36,000  Level Miami Center
Sun 10:28:34 PM 22.2022 -71.1367 304° West 454 522 36,000  Level Miami Center
Sun 10:29:34 PM 22.2733 -71.2503 304° West 454 522 36,000  Level Miami Center
Sun 10:30:36 PM 22.3442 -71.3617 305° West 449 517 36,000  Level Miami Center
Sun 10:31:34 PM 22.4128 -71.4731 304° West 449 517 36,000  Level Miami Center
Sun 10:32:35 PM 22.4836 -71.5847 304° West 449 517 36,000  Level Miami Center
Sun 10:33:36 PM 22.5542 -71.6942 305° West 449 517 36,000 -50 Level Miami Center
Sun 10:34:34 PM 22.6228 -71.8083 303° West 449 517 35,900  Descending Miami Center
Sun 10:35:35 PM 22.6933 -71.9206 304° West 449 517 36,000 50 Climbing Miami Center
Sun 10:36:35 PM 22.7636 -72.0325 304° West 449 517 36,000  Level Miami Center
Sun 10:37:36 PM 22.8361 -72.1425 306° West 449 517 36,000  Level Miami Center
Sun 10:38:37 PM 22.9042 -72.2572 303° West 449 517 36,000  Level Miami Center
Sun 10:39:34 PM 22.9722 -72.3675 304° West 449 517 36,000  Level Miami Center
Sun 10:40:35 PM 23.0428 -72.4892 302° West 449 517 36,000  Level Miami Center
Sun 10:41:35 PM 23.1106 -72.5975 304° West 442 509 36,000  Level Miami Center
Sun 10:42:34 PM 23.1806 -72.7081 305° West 442 509 36,000 -50 Level Miami Center
Sun 10:43:35 PM 23.2483 -72.8189 304° West 442 509 35,900 -49 Descending Miami Center
Sun 10:44:36 PM 23.3181 -72.9275 305° West 442 509 35,900 50 Level Miami Center
Sun 10:45:34 PM 23.3856 -73.0383 304° West 447 514 36,000 50 Climbing Miami Center
Sun 10:46:35 PM 23.4575 -73.1517 305° West 447 514 36,000  Level Miami Center
Sun 10:47:34 PM 23.5228 -73.2631 303° West 447 514 36,000  Level Miami Center
Sun 10:48:35 PM 23.5922 -73.3767 304° West 453 521 36,000  Level Miami Center
Sun 10:49:34 PM 23.6617 -73.4881 304° West 453 521 36,000  Level Miami Center
Sun 10:50:34 PM 23.7289 -73.6019 303° West 453 521 36,000  Level Miami Center
Sun 10:51:36 PM 23.7983 -73.7139 304° West 448 516 36,000  Level Miami Center
Sun 10:52:36 PM 23.8694 -73.8256 305° West 455 524 36,000  Level Miami Center
Sun 10:53:34 PM 23.9258 -73.9242 302° West 446 513 36,000  Level Miami Center
Sun 10:54:34 PM 23.9947 -74.0364 304° West 446 513 36,000  Level Miami Center
Sun 10:55:35 PM 24.0617 -74.1486 303° West 446 513 36,000  Level Miami Center
Sun 10:56:35 PM 24.1325 -74.2608 305° West 451 519 36,000  Level Miami Center
Sun 10:57:35 PM 24.1972 -74.3733 302° West 451 519 36,000  Level Miami Center
Sun 10:58:36 PM 24.2658 -74.4861 304° West 451 519 36,000  Level Miami Center
Sun 10:59:34 PM 24.3347 -74.6008 303° West 451 519 36,000  Level Miami Center
Sun 11:00:36 PM 24.4011 -74.7117 303° West 451 519 36,000  Level Miami Center
Sun 11:01:34 PM 24.4675 -74.8244 303° West 451 519 36,000 -50 Level Miami Center
Sun 11:02:35 PM 24.5422 -74.9489 303° West 452 520 35,900  Descending Miami Center
Sun 11:03:34 PM 24.6106 -75.0667 303° West 452 520 36,000 50 Climbing Miami Center
Sun 11:04:34 PM 24.6767 -75.1778 303° West 452 520 36,000  Level Miami Center
Sun 11:05:36 PM 24.7428 -75.2914 303° West 452 520 36,000  Level Miami Center
Sun 11:06:34 PM 24.8108 -75.4094 302° West 452 520 36,000  Level Miami Center
Sun 11:07:35 PM 24.8786 -75.5278 302° West 452 520 36,000  Level Miami Center
Sun 11:08:36 PM 24.9444 -75.6417 303° West 452 520 36,000  Level Miami Center
Sun 11:09:36 PM 25.0144 -75.7533 305° West 452 520 36,000  Level Miami Center
Sun 11:10:35 PM 25.0736 -75.8675 300° West 441 507 36,000  Level Miami Center
Sun 11:11:34 PM 25.1475 -75.9817 306° West 446 513 36,000 -50 Level Miami Center
Sun 11:12:35 PM 25.2108 -76.0961 301° West 452 520 35,900  Descending Miami Center
Sun 11:13:34 PM 25.2742 -76.2131 301° West 446 513 36,000 50 Climbing Miami Center
Sun 11:14:36 PM 25.3458 -76.3275 305° West 451 519 36,000  Level Miami Center
Sun 11:15:34 PM 25.4108 -76.4447 302° West 451 519 36,000  Level Miami Center
Sun 11:16:35 PM 25.4800 -76.5617 303° West 451 519 36,000  Level Miami Center
Sun 11:17:35 PM 25.5450 -76.6814 301° West 451 519 36,000  Level Miami Center
Sun 11:18:35 PM 25.6100 -76.7964 302° West 451 519 36,000  Level Miami Center
Sun 11:19:35 PM 25.6769 -76.9164 302° West 451 519 36,000  Level Miami Center
Sun 11:20:36 PM 25.7458 -77.0364 303° West 451 519 36,000  Level Miami Center
Sun 11:25:42 PM 26.0890 -77.6470 303° West 454 522 36,000  Level FlightAware ADS-B
Sun 11:26:22 PM 26.1350 -77.7290 302° West 449 517 36,000  Level FlightAware ADS-B
Sun 11:27:07 PM 26.1810 -77.8130 301° West 448 516 36,000  Level FlightAware ADS-B
Sun 11:27:50 PM 26.2280 -77.8970 302° West 448 516 36,000  Level FlightAware ADS-B
Sun 11:28:27 PM 26.2700 -77.9730 302° West 448 516 36,000  Level FlightAware ADS-B
Sun 11:29:12 PM 26.3200 -78.0650 301° West 448 516 36,000  Level FlightAware ADS-B
Sun 11:30:00 PM 26.3660 -78.1510 301° West 448 516 36,000  Level FlightAware ADS-B
Sun 11:30:32 PM 26.4070 -78.2230 302° West 451 519 36,000  Level FlightAware ADS-B
Sun 11:31:19 PM 26.4560 -78.3110 302° West 459 528 36,000  Level FlightAware ADS-B
Sun 11:32:15 PM 26.5230 -78.4330 302° West 454 522 36,000  Level FlightAware ADS-B
Sun 11:32:55 PM 26.5670 -78.5140 301° West 458 527 36,000  Level FlightAware ADS-B
Sun 11:33:40 PM 26.6160 -78.6030 302° West 452 520 36,000  Level FlightAware ADS-B
Sun 11:34:22 PM 26.6630 -78.6890 301° West 450 518 36,000  Level FlightAware ADS-B
Sun 11:35:03 PM 26.7070 -78.7700 301° West 449 517 36,000  Level FlightAware ADS-B
Sun 11:35:42 PM 26.7490 -78.8480 301° West 448 516 36,000 -71 Level FlightAware ADS-B
Sun 11:36:27 PM 26.7980 -78.9380 301° West 449 517 35,900 -71 Descending FlightAware ADS-B
Sun 11:37:07 PM 26.8420 -79.0200 301° West 451 519 35,900 71 Level FlightAware ADS-B
Sun 11:37:52 PM 26.8910 -79.1100 301° West 453 521 36,000 70 Climbing FlightAware ADS-B
Sun 11:38:33 PM 26.9350 -79.1920 301° West 454 522 36,000  Level FlightAware ADS-B
Sun 11:39:12 PM 26.9790 -79.2730 301° West 454 522 36,000 -286 Level FlightAware ADS-B
Sun 11:39:57 PM 27.0260 -79.3620 301° West 447 514 35,600 -776 Descending FlightAware ADS-B
Sun 11:40:37 PM 27.0710 -79.4430 302° West 452 520 34,900 -988 Descending FlightAware ADS-B
Sun 11:41:22 PM 27.1370 -79.5150 316° Northwest 448 516 34,200 -988 Descending FlightAware ADS-B
Sun 11:42:02 PM 27.2050 -79.5730 323° Northwest 447 514 33,500 -988 Descending FlightAware ADS-B
Sun 11:42:47 PM 27.2810 -79.6360 324° Northwest 459 528 32,800 -988 Descending FlightAware ADS-B
Sun 11:43:27 PM 27.3500 -79.6910 325° Northwest 461 531 32,100 -1,200 Descending FlightAware ADS-B
Sun 11:44:12 PM 27.4040 -79.7800 304° West 452 520 31,100 -1,553 Descending FlightAware ADS-B
Sun 11:44:52 PM 27.4380 -79.8660 294° West 461 531 29,900 -1,875 Descending FlightAware ADS-B
Sun 11:45:32 PM 27.4750 -79.9550 295° West 455 524 28,600 -1,906 Descending FlightAware ADS-B
Sun 11:46:17 PM 27.5140 -80.0490 295° West 438 504 27,200 -1,744 Descending FlightAware ADS-B
Sun 11:46:58 PM 27.5470 -80.1310 294° West 427 491 26,100 -1,624 Descending FlightAware ADS-B
Sun 11:47:42 PM 27.5830 -80.2170 295° West 425 489 24,900 -1,714 Descending FlightAware ADS-B
Sun 11:48:22 PM 27.6160 -80.3000 294° West 421 484 23,700 -1,800 Descending FlightAware ADS-B
Sun 11:49:02 PM 27.6500 -80.3810 295° West 408 470 22,500 -1,765 Descending FlightAware ADS-B
Sun 11:49:47 PM 27.6830 -80.4610 295° West 406 467 21,200 -1,906 Descending FlightAware ADS-B
Sun 11:50:27 PM 27.7160 -80.5430 294° West 398 458 19,800 -2,047 Descending FlightAware ADS-B
Sun 11:51:12 PM 27.7510 -80.6280 295° West 386 444 18,300 -1,953 Descending FlightAware ADS-B
Sun 11:51:53 PM 27.7790 -80.6980 294° West 373 429 17,000 -1,765 Descending FlightAware ADS-B
Sun 11:52:37 PM 27.8110 -80.7760 295° West 372 428 15,800 -1,735 Descending FlightAware ADS-B
Sun 11:53:16 PM 27.8390 -80.8470 294° West 365 420 14,600 -1,786 Descending FlightAware ADS-B
Sun 11:54:01 PM 27.8710 -80.9260 295° West 357 411 13,300 -1,624 Descending FlightAware ADS-B
Sun 11:54:41 PM 27.8980 -80.9930 295° West 339 390 12,300 -1,360 Descending FlightAware ADS-B
Sun 11:55:16 PM 27.9210 -81.0490 295° West 347 399 11,600 -918 Descending FlightAware ADS-B
Sun 11:56:06 PM 27.9680 -81.1220 306° West 348 400 11,000 -400 Descending FlightAware ADS-B
Sun 11:56:46 PM 28.0310 -81.1440 343° North 355 409 11,000 -300 Level FlightAware ADS-B
Sun 11:57:26 PM 28.0930 -81.1640 344° North 323 372 10,600 -750 Descending FlightAware ADS-B
Sun 11:58:06 PM 28.1490 -81.1830 343° North 302 348 10,000 -1,100 Descending FlightAware ADS-B
Sun 11:58:26 PM 28.1770 -81.1880 351° North 309 356 9,500 -1,543 Descending FlightAware ADS-B
Sun 11:59:16 PM 28.2480 -81.1880 360° North 303 349 8,200 -1,516 Descending FlightAware ADS-B
Mon 12:00:01 AM 28.3110 -81.1880 360° North 291 335 7,100 -1,457 Descending FlightAware ADS-B
Mon 12:00:26 AM 28.3460 -81.1880 360° North 292 336 6,500 -1,527 Descending FlightAware ADS-B
Mon 12:00:56 AM 28.3880 -81.1880 360° North 290 334 5,700 -1,821 Descending FlightAware ADS-B
Mon 12:01:22 AM 28.4220 -81.1880 360° North 292 336 4,800 -2,080 Descending FlightAware ADS-B
Mon 12:02:11 AM 28.4890 -81.1880 360° North 292 336 3,100 -2,034 Descending FlightAware ADS-B
Mon 12:02:21 AM 28.5030 -81.1920 346° North 289 333 2,800 -900 Descending FlightAware ADS-B
Mon 12:02:51 AM 28.5360 -81.2130 331° Northwest 252 290 2,500 -327 Descending FlightAware ADS-B
Mon 12:03:16 AM 28.5540 -81.2320 317° Northwest 223 257 2,500  Level FlightAware ADS-B
Mon 12:03:31 AM 28.5610 -81.2490 295° West 197 227 2,500  Level FlightAware ADS-B
Mon 12:04:01 AM 28.5660 -81.2780 281° West 172 198 2,500  Level FlightAware ADS-B
Mon 12:04:31 AM 28.5640 -81.3000 264° West 142 163 2,500  Level FlightAware ADS-B
Mon 12:04:51 AM 28.5580 -81.3140 244° Southwest 135 155 2,500 -450 Level FlightAware ADS-B
Mon 12:05:11 AM 28.5490 -81.3250 227° Southwest 131 151 2,200 -1,000 Descending FlightAware ADS-B
Mon 12:05:21 AM 28.5430 -81.3260 188° South 128 147 2,000 -960 Descending FlightAware ADS-B
Mon 12:05:36 AM 28.5340 -81.3270 186° South 134 154 1,800 -776 Descending FlightAware ADS-B
Mon 12:06:46 AM 28.4920 -81.3280 181° South 129 148 900 -720 Descending FlightAware ADS-B
Mon 12:07:16 AM 28.4720 -81.3270 177° South 129 148 600 -655 Descending FlightAware ADS-B
Mon 12:07:41 AM 28.4550 -81.3270 180° South 129 148 300 -720 Descending FlightAware ADS-B
Mon 12:08:06 AM 28.4390 -81.3270 180° South 115 132 -720 Descending FlightAware ADS-B
Mon 12:08:41 AM 28.4310 -81.3260 174° South 29 33  Level FlightAware ADS-B
Mon 12:08:51 AM 28.4310 -81.3240 90° East 28 32  Level FlightAware ADS-B
Mon 12:09:36 AM 28.4320 -81.3190 77° East 17 20  Level FlightAware ADS-B
Mon 12:09:51 AM 28.4330 -81.3180 41° Northeast 20 23  Level FlightAware ADS-B
Mon 12:10:06 AM 28.4350 -81.3180 360° North 20 23  Level FlightAware ADS-B
Mon 12:10:46 AM 28.4330 -81.3170 156° South 15 17  Level FlightAware ADS-B
Mon 12:11:09 AM 28.4330 -81.3160 90° East 14 16  Level FlightAware ADS-B
Mon 12:14:00 AM 28.4294 -81.3090 199° South  Level Estimated
Mon 12:15:00 AM 28.4294 -81.3090 199° South  Level Estimated
Mon 12:16:00 AM 28.4294 -81.3090 199° South  Level Estimated
Mon 12:17:00 AM 28.4294 -81.3090 199° South  Level Estimated
Mon 12:18:00 AM 28.4294 -81.3090 199° South  Level Estimated
Mon 12:19:00 AM 28.4294 -81.3090 199° South  Level Estimated

Login

Don't have an account? Register now (free) for customized features, flight alerts, and more!